Aeroporto :
LOGIN :

Iscrizione | Disclaimer

   EN    FR    IT 

 










Sommario :    VFR   VFR Marginale   IFR   IFR Intensivo   IFR Molto Intensivo
Visibilità : 
Base nubi : 
>= 8 km
>= 3000ft
5 / 8 km
1000 / 3000 ft
1500m / 5 km
500 / 1000 ft
800 / 1500m
200 / 500 ft
< 800m
< 200 ft
Simboli :   Temporali  Nebbia  Neve Forte  Precipitazioni Forti  Vento > 20 kt
SIGMETs :   Varie  Temporali  Ghiacco  Turbolenza  Onda orograficha  Ceneri Vulcaniche






- Altitudine del aeroporto : 844 ft
- Codice IATA : OSR


LKMT - Ostrava-Mosnov

ULTIMO METAR :
  • 190300Z 26003KT 3200 -SN OVC034 M00/M01 Q1026 R04/590392 TEMPO 2500 SN

METARs OBSOLETI :
  • 190230Z 24002KT 3700 -SN FEW032 OVC048 M00/M01 Q1026 R04/590392 NOSIG
  • 190200Z 26004KT 3500 -SN FEW033 BKN047 M00/M01 Q1026 R04/590392 NOSIG
  • 190130Z 23003KT 3500 -SN OVC042 M00/M01 Q1026 R04/590392 NOSIG
  • 190100Z 25003KT 3500 -SN OVC043 M00/M01 Q1026 R04/590392 NOSIG
  • 190030Z 23003KT 200V270 4000 -SN SCT006 OVC037 00/M00 Q1025 R04/590392 NOSIG
  • 190010Z 18004KT 4000 -SN OVC038 00/M00 Q1025 R04/590392 RMK REG QNH 1023

TAF TAF LKMT
Valido dal 19 a 00 ore il 20 a 06 ore UTC


182300Z 1900/2006 03008KT 4000 BR BKN011
TEMPO 1900/2006 2000 -SN BR BKN006
PROB30
TEMPO 1900/2006 1200 SN BR BKN003



MetMap, La meteo Aeronautica in un colpo d'occhio ! - Copyright ORBIFLY Dicembre 2007 - Disclaimer

ORBIFLY MET'MAP TEAM :

Programmazione e sviluppo : Alexandra Zaïnal
Concezione : Baudouin d'Aumeries
Aiuto per la programmazione : Marc-Olivier Méhu
Supporto tecnico e logistico : Manuel Goepfert
Aiuto per la traduzione : Arnaldo La Scala

Contatto : metmap@orbifly.com




FONTI E CREDITI :

   NOAA